Terminal Aerodrome Forecast
Issued by NWS

Home | Current Version | Previous Version | Text Only | Print | Product List | Glossary On
Versions: 1 2 3 4 5 6 7 8 9 10 11 12
000
FTUS42 TJSJ 241100
TAFJPS
TAF
TJPS 241130Z 2412/2512 00000KT P6SM FEW030
     FM241330 14010KT P6SM FEW030 SCT060
     FM242230 05005KT P6SM FEW030=

USA.gov is the U.S. government's official web portal to all federal, state and local government web resources and services.